sensor_id;sensor_type;location;lat;lon;timestamp;temperature;humidity
15364;DHT22;7781;49.690;6.472;2023-07-28T00:00:26;16.90;99.90
15364;DHT22;7781;49.690;6.472;2023-07-28T00:02:54;16.90;99.90
15364;DHT22;7781;49.690;6.472;2023-07-28T00:05:24;17.00;99.90
15364;DHT22;7781;49.690;6.472;2023-07-28T00:07:53;16.90;99.90
15364;DHT22;7781;49.690;6.472;2023-07-28T00:10:22;17.00;99.90
15364;DHT22;7781;49.690;6.472;2023-07-28T00:12:53;16.90;99.90
15364;DHT22;7781;49.690;6.472;2023-07-28T00:15:22;16.90;99.90
15364;DHT22;7781;49.690;6.472;2023-07-28T00:17:50;16.90;99.90
15364;DHT22;7781;49.690;6.472;2023-07-28T00:20:19;16.90;99.90
15364;DHT22;7781;49.690;6.472;2023-07-28T00:22:50;16.90;99.90
15364;DHT22;7781;49.690;6.472;2023-07-28T00:25:18;16.90;99.90
15364;DHT22;7781;49.690;6.472;2023-07-28T00:27:47;16.90;99.90
15364;DHT22;7781;49.690;6.472;2023-07-28T00:30:16;16.90;99.90
15364;DHT22;7781;49.690;6.472;2023-07-28T00:32:47;16.90;99.90
15364;DHT22;7781;49.690;6.472;2023-07-28T00:35:15;16.90;99.90
15364;DHT22;7781;49.690;6.472;2023-07-28T00:37:44;16.90;99.90
15364;DHT22;7781;49.690;6.472;2023-07-28T00:40:15;16.90;99.90
15364;DHT22;7781;49.690;6.472;2023-07-28T00:42:43;16.90;99.90
15364;DHT22;7781;49.690;6.472;2023-07-28T00:45:14;16.90;99.90
15364;DHT22;7781;49.690;6.472;2023-07-28T00:47:42;16.90;99.90
15364;DHT22;7781;49.690;6.472;2023-07-28T00:50:12;16.90;99.90
15364;DHT22;7781;49.690;6.472;2023-07-28T00:52:40;16.90;99.90
15364;DHT22;7781;49.690;6.472;2023-07-28T00:55:14;16.90;99.90
15364;DHT22;7781;49.690;6.472;2023-07-28T00:57:42;16.90;99.90
15364;DHT22;7781;49.690;6.472;2023-07-28T01:00:12;16.90;99.90
15364;DHT22;7781;49.690;6.472;2023-07-28T01:02:40;16.90;99.90
15364;DHT22;7781;49.690;6.472;2023-07-28T01:05:10;16.90;99.90
15364;DHT22;7781;49.690;6.472;2023-07-28T01:07:46;16.90;99.90
15364;DHT22;7781;49.690;6.472;2023-07-28T01:10:18;16.90;99.90
15364;DHT22;7781;49.690;6.472;2023-07-28T01:12:50;16.90;99.90
15364;DHT22;7781;49.690;6.472;2023-07-28T01:15:19;16.90;99.90
15364;DHT22;7781;49.690;6.472;2023-07-28T01:17:48;16.90;99.90
15364;DHT22;7781;49.690;6.472;2023-07-28T01:20:17;17.00;99.90
15364;DHT22;7781;49.690;6.472;2023-07-28T01:22:51;17.00;99.90
15364;DHT22;7781;49.690;6.472;2023-07-28T01:25:36;17.00;99.90
15364;DHT22;7781;49.690;6.472;2023-07-28T01:28:07;17.00;99.90
15364;DHT22;7781;49.690;6.472;2023-07-28T01:30:36;17.00;99.90
15364;DHT22;7781;49.690;6.472;2023-07-28T01:33:06;17.00;99.90
15364;DHT22;7781;49.690;6.472;2023-07-28T01:35:36;17.00;99.90
15364;DHT22;7781;49.690;6.472;2023-07-28T01:38:05;17.00;99.90
15364;DHT22;7781;49.690;6.472;2023-07-28T01:40:33;17.00;99.90
15364;DHT22;7781;49.690;6.472;2023-07-28T01:43:02;17.00;99.90
15364;DHT22;7781;49.690;6.472;2023-07-28T01:45:32;17.00;99.90
15364;DHT22;7781;49.690;6.472;2023-07-28T01:48:01;17.00;99.90
15364;DHT22;7781;49.690;6.472;2023-07-28T01:50:30;17.00;99.90
15364;DHT22;7781;49.690;6.472;2023-07-28T01:52:59;17.00;99.90
15364;DHT22;7781;49.690;6.472;2023-07-28T01:55:28;17.00;99.90
15364;DHT22;7781;49.690;6.472;2023-07-28T01:57:58;17.00;99.90
15364;DHT22;7781;49.690;6.472;2023-07-28T02:00:28;17.00;99.90
15364;DHT22;7781;49.690;6.472;2023-07-28T02:02:57;17.00;99.90
15364;DHT22;7781;49.690;6.472;2023-07-28T02:05:29;17.00;99.90
15364;DHT22;7781;49.690;6.472;2023-07-28T02:07:57;17.00;99.90
15364;DHT22;7781;49.690;6.472;2023-07-28T02:10:26;17.00;99.90
15364;DHT22;7781;49.690;6.472;2023-07-28T02:12:55;17.00;99.90
15364;DHT22;7781;49.690;6.472;2023-07-28T02:15:24;17.10;99.90
15364;DHT22;7781;49.690;6.472;2023-07-28T02:17:52;17.10;99.90
15364;DHT22;7781;49.690;6.472;2023-07-28T02:20:25;17.10;99.90
15364;DHT22;7781;49.690;6.472;2023-07-28T02:22:53;17.10;99.90
15364;DHT22;7781;49.690;6.472;2023-07-28T02:25:23;17.10;99.90
15364;DHT22;7781;49.690;6.472;2023-07-28T02:27:52;17.00;99.90
15364;DHT22;7781;49.690;6.472;2023-07-28T02:30:20;17.10;99.90
15364;DHT22;7781;49.690;6.472;2023-07-28T02:32:49;17.00;99.90
15364;DHT22;7781;49.690;6.472;2023-07-28T02:35:19;17.10;99.90
15364;DHT22;7781;49.690;6.472;2023-07-28T02:37:49;17.10;99.90
15364;DHT22;7781;49.690;6.472;2023-07-28T02:40:18;17.10;99.90
15364;DHT22;7781;49.690;6.472;2023-07-28T02:42:47;17.10;99.90
15364;DHT22;7781;49.690;6.472;2023-07-28T02:45:16;17.10;99.90
15364;DHT22;7781;49.690;6.472;2023-07-28T02:47:45;17.10;99.90
15364;DHT22;7781;49.690;6.472;2023-07-28T02:50:13;17.10;99.90
15364;DHT22;7781;49.690;6.472;2023-07-28T02:52:43;17.10;99.90
15364;DHT22;7781;49.690;6.472;2023-07-28T02:55:14;17.10;99.90
15364;DHT22;7781;49.690;6.472;2023-07-28T02:57:42;17.10;99.90
15364;DHT22;7781;49.690;6.472;2023-07-28T03:00:12;17.10;99.90
15364;DHT22;7781;49.690;6.472;2023-07-28T03:02:41;17.10;99.90
15364;DHT22;7781;49.690;6.472;2023-07-28T03:05:10;17.10;99.90
15364;DHT22;7781;49.690;6.472;2023-07-28T03:07:49;17.10;99.90
15364;DHT22;7781;49.690;6.472;2023-07-28T03:10:19;17.10;99.90
15364;DHT22;7781;49.690;6.472;2023-07-28T03:12:48;17.10;99.90
15364;DHT22;7781;49.690;6.472;2023-07-28T03:15:17;17.10;99.90
15364;DHT22;7781;49.690;6.472;2023-07-28T03:17:45;17.10;99.90
15364;DHT22;7781;49.690;6.472;2023-07-28T03:20:14;17.00;99.90
15364;DHT22;7781;49.690;6.472;2023-07-28T03:22:45;17.10;99.90
15364;DHT22;7781;49.690;6.472;2023-07-28T03:25:15;17.10;99.90
15364;DHT22;7781;49.690;6.472;2023-07-28T03:27:45;17.10;99.90
15364;DHT22;7781;49.690;6.472;2023-07-28T03:30:14;17.00;99.90
15364;DHT22;7781;49.690;6.472;2023-07-28T03:32:43;17.00;99.90
15364;DHT22;7781;49.690;6.472;2023-07-28T03:35:14;17.00;99.90
15364;DHT22;7781;49.690;6.472;2023-07-28T03:37:49;17.00;99.90
15364;DHT22;7781;49.690;6.472;2023-07-28T03:40:18;17.10;99.90
15364;DHT22;7781;49.690;6.472;2023-07-28T03:42:52;17.10;99.90
15364;DHT22;7781;49.690;6.472;2023-07-28T03:45:21;17.10;99.90
15364;DHT22;7781;49.690;6.472;2023-07-28T03:47:49;17.00;99.90
15364;DHT22;7781;49.690;6.472;2023-07-28T03:50:18;17.10;99.90
15364;DHT22;7781;49.690;6.472;2023-07-28T03:52:46;17.00;99.90
15364;DHT22;7781;49.690;6.472;2023-07-28T03:55:15;17.00;99.90
15364;DHT22;7781;49.690;6.472;2023-07-28T03:57:44;17.00;99.90
15364;DHT22;7781;49.690;6.472;2023-07-28T04:00:14;17.00;99.90
15364;DHT22;7781;49.690;6.472;2023-07-28T04:02:43;17.00;99.90
15364;DHT22;7781;49.690;6.472;2023-07-28T04:05:11;17.00;99.90
15364;DHT22;7781;49.690;6.472;2023-07-28T04:07:40;16.90;99.90
15364;DHT22;7781;49.690;6.472;2023-07-28T04:10:09;16.90;99.90
15364;DHT22;7781;49.690;6.472;2023-07-28T04:12:38;16.90;99.90
15364;DHT22;7781;49.690;6.472;2023-07-28T04:15:09;17.00;99.90
15364;DHT22;7781;49.690;6.472;2023-07-28T04:17:40;17.00;99.90
15364;DHT22;7781;49.690;6.472;2023-07-28T04:20:09;17.00;99.90
15364;DHT22;7781;49.690;6.472;2023-07-28T04:22:38;17.00;99.90
15364;DHT22;7781;49.690;6.472;2023-07-28T04:25:07;17.10;99.90
15364;DHT22;7781;49.690;6.472;2023-07-28T04:27:38;17.10;99.90
15364;DHT22;7781;49.690;6.472;2023-07-28T04:30:07;17.00;99.90
15364;DHT22;7781;49.690;6.472;2023-07-28T04:32:35;17.10;99.90
15364;DHT22;7781;49.690;6.472;2023-07-28T04:35:21;17.10;99.90
15364;DHT22;7781;49.690;6.472;2023-07-28T04:38:19;17.10;99.90
15364;DHT22;7781;49.690;6.472;2023-07-28T04:40:55;17.10;99.90
15364;DHT22;7781;49.690;6.472;2023-07-28T04:43:38;17.10;99.90
15364;DHT22;7781;49.690;6.472;2023-07-28T04:46:06;17.10;99.90
15364;DHT22;7781;49.690;6.472;2023-07-28T04:48:35;17.10;99.90
15364;DHT22;7781;49.690;6.472;2023-07-28T04:51:22;17.20;99.90
15364;DHT22;7781;49.690;6.472;2023-07-28T04:54:20;17.20;99.90
15364;DHT22;7781;49.690;6.472;2023-07-28T04:56:49;17.20;99.90
15364;DHT22;7781;49.690;6.472;2023-07-28T04:59:26;17.20;99.90
15364;DHT22;7781;49.690;6.472;2023-07-28T05:01:55;17.20;99.90
15364;DHT22;7781;49.690;6.472;2023-07-28T05:04:23;17.20;99.90
15364;DHT22;7781;49.690;6.472;2023-07-28T05:06:54;17.20;99.90
15364;DHT22;7781;49.690;6.472;2023-07-28T05:09:22;17.30;99.90
15364;DHT22;7781;49.690;6.472;2023-07-28T05:11:51;17.30;99.90
15364;DHT22;7781;49.690;6.472;2023-07-28T05:14:20;17.30;99.90
15364;DHT22;7781;49.690;6.472;2023-07-28T05:16:49;17.30;99.90
15364;DHT22;7781;49.690;6.472;2023-07-28T05:19:17;17.30;99.90
15364;DHT22;7781;49.690;6.472;2023-07-28T05:22:08;17.40;99.90
15364;DHT22;7781;49.690;6.472;2023-07-28T05:24:49;17.40;99.90
15364;DHT22;7781;49.690;6.472;2023-07-28T05:27:22;17.40;99.90
15364;DHT22;7781;49.690;6.472;2023-07-28T05:29:51;17.40;99.90
15364;DHT22;7781;49.690;6.472;2023-07-28T05:32:19;17.40;99.90
15364;DHT22;7781;49.690;6.472;2023-07-28T05:35:03;17.40;99.90
15364;DHT22;7781;49.690;6.472;2023-07-28T05:37:35;17.50;99.90
15364;DHT22;7781;49.690;6.472;2023-07-28T05:40:04;17.50;99.90
15364;DHT22;7781;49.690;6.472;2023-07-28T05:42:34;17.50;99.90
15364;DHT22;7781;49.690;6.472;2023-07-28T05:45:04;17.50;99.90
15364;DHT22;7781;49.690;6.472;2023-07-28T05:47:32;17.50;99.90
15364;DHT22;7781;49.690;6.472;2023-07-28T05:50:01;17.50;99.90
15364;DHT22;7781;49.690;6.472;2023-07-28T05:52:33;17.50;99.90
15364;DHT22;7781;49.690;6.472;2023-07-28T05:55:01;17.60;99.90
15364;DHT22;7781;49.690;6.472;2023-07-28T05:57:31;17.60;99.90
15364;DHT22;7781;49.690;6.472;2023-07-28T06:00:04;17.60;99.90
15364;DHT22;7781;49.690;6.472;2023-07-28T06:02:42;17.60;99.90
15364;DHT22;7781;49.690;6.472;2023-07-28T06:05:24;17.70;99.90
15364;DHT22;7781;49.690;6.472;2023-07-28T06:07:55;17.70;99.90
15364;DHT22;7781;49.690;6.472;2023-07-28T06:10:23;17.70;99.90
15364;DHT22;7781;49.690;6.472;2023-07-28T06:12:52;17.70;99.90
15364;DHT22;7781;49.690;6.472;2023-07-28T06:15:21;17.80;99.90
15364;DHT22;7781;49.690;6.472;2023-07-28T06:17:50;17.80;99.90
15364;DHT22;7781;49.690;6.472;2023-07-28T06:20:19;17.80;99.90
15364;DHT22;7781;49.690;6.472;2023-07-28T06:22:48;17.80;99.90
15364;DHT22;7781;49.690;6.472;2023-07-28T06:25:18;17.80;99.90
15364;DHT22;7781;49.690;6.472;2023-07-28T06:27:48;17.80;99.90
15364;DHT22;7781;49.690;6.472;2023-07-28T06:30:16;17.80;99.90
15364;DHT22;7781;49.690;6.472;2023-07-28T06:32:45;17.70;99.90
15364;DHT22;7781;49.690;6.472;2023-07-28T06:35:13;17.80;99.90
15364;DHT22;7781;49.690;6.472;2023-07-28T06:37:42;17.70;99.90
15364;DHT22;7781;49.690;6.472;2023-07-28T06:40:11;17.70;99.90
15364;DHT22;7781;49.690;6.472;2023-07-28T06:42:42;17.70;99.90
15364;DHT22;7781;49.690;6.472;2023-07-28T06:45:10;17.80;99.90
15364;DHT22;7781;49.690;6.472;2023-07-28T06:47:39;17.80;99.90
15364;DHT22;7781;49.690;6.472;2023-07-28T06:50:08;17.80;99.90
15364;DHT22;7781;49.690;6.472;2023-07-28T06:52:38;17.80;99.90
15364;DHT22;7781;49.690;6.472;2023-07-28T06:55:08;17.90;99.90
15364;DHT22;7781;49.690;6.472;2023-07-28T06:57:36;17.90;99.90
15364;DHT22;7781;49.690;6.472;2023-07-28T07:00:10;17.90;99.90
15364;DHT22;7781;49.690;6.472;2023-07-28T07:02:39;17.90;99.90
15364;DHT22;7781;49.690;6.472;2023-07-28T07:05:08;17.90;99.90
15364;DHT22;7781;49.690;6.472;2023-07-28T07:07:37;17.90;99.90
15364;DHT22;7781;49.690;6.472;2023-07-28T07:10:07;17.90;99.90
15364;DHT22;7781;49.690;6.472;2023-07-28T07:12:36;18.00;99.90
15364;DHT22;7781;49.690;6.472;2023-07-28T07:15:06;18.00;99.90
15364;DHT22;7781;49.690;6.472;2023-07-28T07:17:36;18.00;99.90
15364;DHT22;7781;49.690;6.472;2023-07-28T07:20:08;18.10;99.90
15364;DHT22;7781;49.690;6.472;2023-07-28T07:22:39;18.10;99.90
15364;DHT22;7781;49.690;6.472;2023-07-28T07:25:09;18.00;99.90
15364;DHT22;7781;49.690;6.472;2023-07-28T07:27:38;18.00;99.90
15364;DHT22;7781;49.690;6.472;2023-07-28T07:30:07;18.10;99.90
15364;DHT22;7781;49.690;6.472;2023-07-28T07:32:37;18.00;99.90
15364;DHT22;7781;49.690;6.472;2023-07-28T07:35:07;18.10;99.90
15364;DHT22;7781;49.690;6.472;2023-07-28T07:37:35;18.10;99.90
15364;DHT22;7781;49.690;6.472;2023-07-28T07:40:05;18.10;99.90
15364;DHT22;7781;49.690;6.472;2023-07-28T07:42:41;18.10;99.90
15364;DHT22;7781;49.690;6.472;2023-07-28T07:45:12;18.10;99.90
15364;DHT22;7781;49.690;6.472;2023-07-28T07:47:43;18.10;99.90
15364;DHT22;7781;49.690;6.472;2023-07-28T07:50:12;18.10;99.90
15364;DHT22;7781;49.690;6.472;2023-07-28T07:52:40;18.20;99.90
15364;DHT22;7781;49.690;6.472;2023-07-28T07:55:10;18.20;99.90
15364;DHT22;7781;49.690;6.472;2023-07-28T07:57:40;18.20;99.90
15364;DHT22;7781;49.690;6.472;2023-07-28T08:00:09;18.30;99.90
15364;DHT22;7781;49.690;6.472;2023-07-28T08:02:42;18.30;99.90
15364;DHT22;7781;49.690;6.472;2023-07-28T08:05:13;18.40;99.90
15364;DHT22;7781;49.690;6.472;2023-07-28T08:07:41;18.40;99.90
15364;DHT22;7781;49.690;6.472;2023-07-28T08:10:11;18.30;99.90
15364;DHT22;7781;49.690;6.472;2023-07-28T08:12:40;18.40;99.90
15364;DHT22;7781;49.690;6.472;2023-07-28T08:18:23;18.50;99.90
15364;DHT22;7781;49.690;6.472;2023-07-28T08:20:51;18.50;99.90
15364;DHT22;7781;49.690;6.472;2023-07-28T08:23:20;18.60;99.90
15364;DHT22;7781;49.690;6.472;2023-07-28T08:25:48;18.70;99.90
15364;DHT22;7781;49.690;6.472;2023-07-28T08:28:17;18.70;99.90
15364;DHT22;7781;49.690;6.472;2023-07-28T08:30:54;18.70;99.90
15364;DHT22;7781;49.690;6.472;2023-07-28T08:33:24;18.70;99.90
15364;DHT22;7781;49.690;6.472;2023-07-28T08:35:54;18.80;99.90
15364;DHT22;7781;49.690;6.472;2023-07-28T08:38:23;18.80;99.90
15364;DHT22;7781;49.690;6.472;2023-07-28T08:40:51;18.80;99.90
15364;DHT22;7781;49.690;6.472;2023-07-28T08:43:19;18.80;99.90
15364;DHT22;7781;49.690;6.472;2023-07-28T08:45:47;18.70;99.90
15364;DHT22;7781;49.690;6.472;2023-07-28T08:48:16;18.80;99.90
15364;DHT22;7781;49.690;6.472;2023-07-28T08:50:46;18.90;99.90
15364;DHT22;7781;49.690;6.472;2023-07-28T08:53:15;19.00;99.90
15364;DHT22;7781;49.690;6.472;2023-07-28T08:55:44;19.10;99.90
15364;DHT22;7781;49.690;6.472;2023-07-28T08:58:16;19.10;99.90
15364;DHT22;7781;49.690;6.472;2023-07-28T09:00:46;19.20;99.90
15364;DHT22;7781;49.690;6.472;2023-07-28T09:03:17;19.10;99.90
15364;DHT22;7781;49.690;6.472;2023-07-28T09:05:47;19.10;99.90
15364;DHT22;7781;49.690;6.472;2023-07-28T09:08:16;19.00;99.90
15364;DHT22;7781;49.690;6.472;2023-07-28T09:10:46;19.00;99.90
15364;DHT22;7781;49.690;6.472;2023-07-28T09:13:16;19.00;99.90
15364;DHT22;7781;49.690;6.472;2023-07-28T09:15:45;19.10;99.90
15364;DHT22;7781;49.690;6.472;2023-07-28T09:18:16;19.20;99.90
15364;DHT22;7781;49.690;6.472;2023-07-28T09:20:45;19.20;99.90
15364;DHT22;7781;49.690;6.472;2023-07-28T09:23:16;19.30;99.90
15364;DHT22;7781;49.690;6.472;2023-07-28T09:25:44;19.40;99.90
15364;DHT22;7781;49.690;6.472;2023-07-28T09:28:14;19.60;99.90
15364;DHT22;7781;49.690;6.472;2023-07-28T09:30:48;19.70;99.90
15364;DHT22;7781;49.690;6.472;2023-07-28T09:33:29;19.80;99.90
15364;DHT22;7781;49.690;6.472;2023-07-28T09:36:07;19.90;99.90
15364;DHT22;7781;49.690;6.472;2023-07-28T09:38:39;20.00;99.90
15364;DHT22;7781;49.690;6.472;2023-07-28T09:41:09;20.10;99.90
15364;DHT22;7781;49.690;6.472;2023-07-28T09:43:39;20.30;99.90
15364;DHT22;7781;49.690;6.472;2023-07-28T09:46:09;20.10;99.90
15364;DHT22;7781;49.690;6.472;2023-07-28T09:48:39;20.10;99.90
15364;DHT22;7781;49.690;6.472;2023-07-28T09:51:14;20.20;99.90
15364;DHT22;7781;49.690;6.472;2023-07-28T09:53:48;20.10;99.90
15364;DHT22;7781;49.690;6.472;2023-07-28T09:56:17;19.90;99.90
15364;DHT22;7781;49.690;6.472;2023-07-28T09:58:50;19.80;99.90
15364;DHT22;7781;49.690;6.472;2023-07-28T10:01:19;19.80;99.90
15364;DHT22;7781;49.690;6.472;2023-07-28T10:03:49;19.80;99.90
15364;DHT22;7781;49.690;6.472;2023-07-28T10:06:20;19.70;99.90
15364;DHT22;7781;49.690;6.472;2023-07-28T10:08:52;19.70;99.90
15364;DHT22;7781;49.690;6.472;2023-07-28T10:11:21;19.80;99.90
15364;DHT22;7781;49.690;6.472;2023-07-28T10:13:51;19.90;99.90
15364;DHT22;7781;49.690;6.472;2023-07-28T10:16:31;20.00;99.90
15364;DHT22;7781;49.690;6.472;2023-07-28T10:19:05;20.10;99.90
15364;DHT22;7781;49.690;6.472;2023-07-28T10:21:39;20.20;99.90
15364;DHT22;7781;49.690;6.472;2023-07-28T10:24:11;20.30;99.90
15364;DHT22;7781;49.690;6.472;2023-07-28T10:26:41;20.40;99.90
15364;DHT22;7781;49.690;6.472;2023-07-28T10:29:11;20.40;99.90
15364;DHT22;7781;49.690;6.472;2023-07-28T10:31:50;20.30;99.90
15364;DHT22;7781;49.690;6.472;2023-07-28T10:34:18;20.30;99.90
15364;DHT22;7781;49.690;6.472;2023-07-28T10:36:56;20.30;99.90
15364;DHT22;7781;49.690;6.472;2023-07-28T10:39:27;20.30;99.90
15364;DHT22;7781;49.690;6.472;2023-07-28T10:42:02;20.30;99.90
15364;DHT22;7781;49.690;6.472;2023-07-28T10:44:32;20.30;99.90
15364;DHT22;7781;49.690;6.472;2023-07-28T10:47:02;20.30;99.90
15364;DHT22;7781;49.690;6.472;2023-07-28T10:49:32;20.40;99.90
15364;DHT22;7781;49.690;6.472;2023-07-28T10:52:01;20.50;99.90
15364;DHT22;7781;49.690;6.472;2023-07-28T10:54:33;20.70;99.90
15364;DHT22;7781;49.690;6.472;2023-07-28T10:57:02;21.10;99.90
15364;DHT22;7781;49.690;6.472;2023-07-28T10:59:35;21.20;99.90
15364;DHT22;7781;49.690;6.472;2023-07-28T11:02:04;21.20;99.90
15364;DHT22;7781;49.690;6.472;2023-07-28T11:04:33;21.20;99.90
15364;DHT22;7781;49.690;6.472;2023-07-28T11:07:01;21.10;99.90
15364;DHT22;7781;49.690;6.472;2023-07-28T11:09:30;20.80;99.90
15364;DHT22;7781;49.690;6.472;2023-07-28T11:12:00;20.80;99.90
15364;DHT22;7781;49.690;6.472;2023-07-28T11:14:28;20.70;99.90
15364;DHT22;7781;49.690;6.472;2023-07-28T11:16:57;20.70;99.90
15364;DHT22;7781;49.690;6.472;2023-07-28T11:19:25;20.70;99.90
15364;DHT22;7781;49.690;6.472;2023-07-28T11:21:55;20.60;99.90
15364;DHT22;7781;49.690;6.472;2023-07-28T11:24:25;20.70;99.90
15364;DHT22;7781;49.690;6.472;2023-07-28T11:26:57;20.70;99.90
15364;DHT22;7781;49.690;6.472;2023-07-28T11:29:28;20.70;99.90
15364;DHT22;7781;49.690;6.472;2023-07-28T11:31:57;20.70;99.90
15364;DHT22;7781;49.690;6.472;2023-07-28T11:34:25;20.50;99.90
15364;DHT22;7781;49.690;6.472;2023-07-28T11:36:54;20.20;99.90
15364;DHT22;7781;49.690;6.472;2023-07-28T11:39:23;20.20;99.90
15364;DHT22;7781;49.690;6.472;2023-07-28T11:41:53;20.20;99.90
15364;DHT22;7781;49.690;6.472;2023-07-28T11:44:23;20.20;99.90
15364;DHT22;7781;49.690;6.472;2023-07-28T11:46:53;20.30;99.90
15364;DHT22;7781;49.690;6.472;2023-07-28T11:49:22;20.40;99.90
15364;DHT22;7781;49.690;6.472;2023-07-28T11:51:53;20.40;99.90
15364;DHT22;7781;49.690;6.472;2023-07-28T11:54:23;20.30;99.90
15364;DHT22;7781;49.690;6.472;2023-07-28T11:56:55;20.30;99.90
15364;DHT22;7781;49.690;6.472;2023-07-28T11:59:24;20.20;99.90
15364;DHT22;7781;49.690;6.472;2023-07-28T12:01:56;20.10;99.90
15364;DHT22;7781;49.690;6.472;2023-07-28T12:04:29;20.10;99.90
15364;DHT22;7781;49.690;6.472;2023-07-28T12:07:06;20.20;99.90
15364;DHT22;7781;49.690;6.472;2023-07-28T12:09:51;20.30;99.90
15364;DHT22;7781;49.690;6.472;2023-07-28T12:12:23;20.50;99.90
15364;DHT22;7781;49.690;6.472;2023-07-28T12:14:53;20.70;99.90
15364;DHT22;7781;49.690;6.472;2023-07-28T12:17:26;21.00;99.90
15364;DHT22;7781;49.690;6.472;2023-07-28T12:20:16;21.10;99.90
15364;DHT22;7781;49.690;6.472;2023-07-28T12:22:45;21.10;99.90
15364;DHT22;7781;49.690;6.472;2023-07-28T12:25:15;21.20;99.90
15364;DHT22;7781;49.690;6.472;2023-07-28T12:27:43;21.20;99.90
15364;DHT22;7781;49.690;6.472;2023-07-28T12:30:12;21.30;99.90
15364;DHT22;7781;49.690;6.472;2023-07-28T12:32:44;21.20;99.90
15364;DHT22;7781;49.690;6.472;2023-07-28T12:35:16;21.10;99.90
15364;DHT22;7781;49.690;6.472;2023-07-28T12:37:45;21.00;99.90
15364;DHT22;7781;49.690;6.472;2023-07-28T12:40:17;20.80;99.90
15364;DHT22;7781;49.690;6.472;2023-07-28T12:42:49;20.60;99.90
15364;DHT22;7781;49.690;6.472;2023-07-28T12:45:20;20.60;99.90
15364;DHT22;7781;49.690;6.472;2023-07-28T12:47:51;20.70;99.90
15364;DHT22;7781;49.690;6.472;2023-07-28T12:50:23;20.80;99.90
15364;DHT22;7781;49.690;6.472;2023-07-28T12:52:52;20.80;99.90
15364;DHT22;7781;49.690;6.472;2023-07-28T12:55:23;21.00;99.90
15364;DHT22;7781;49.690;6.472;2023-07-28T12:57:54;21.00;99.90
15364;DHT22;7781;49.690;6.472;2023-07-28T13:00:25;21.00;99.90
15364;DHT22;7781;49.690;6.472;2023-07-28T13:02:59;21.20;99.90
15364;DHT22;7781;49.690;6.472;2023-07-28T13:05:28;21.20;99.90
15364;DHT22;7781;49.690;6.472;2023-07-28T13:07:56;20.90;99.90
15364;DHT22;7781;49.690;6.472;2023-07-28T13:10:27;20.90;99.90
15364;DHT22;7781;49.690;6.472;2023-07-28T13:12:59;20.70;99.90
15364;DHT22;7781;49.690;6.472;2023-07-28T13:15:28;20.50;99.90
15364;DHT22;7781;49.690;6.472;2023-07-28T13:17:58;20.40;99.90
15364;DHT22;7781;49.690;6.472;2023-07-28T13:20:27;20.40;99.90
15364;DHT22;7781;49.690;6.472;2023-07-28T13:22:55;20.40;99.90
15364;DHT22;7781;49.690;6.472;2023-07-28T13:25:24;20.50;99.90
15364;DHT22;7781;49.690;6.472;2023-07-28T13:27:52;20.70;99.90
15364;DHT22;7781;49.690;6.472;2023-07-28T13:30:21;20.70;99.90
15364;DHT22;7781;49.690;6.472;2023-07-28T13:32:53;20.80;99.90
15364;DHT22;7781;49.690;6.472;2023-07-28T13:35:23;20.70;99.90
15364;DHT22;7781;49.690;6.472;2023-07-28T13:37:52;20.80;99.90
15364;DHT22;7781;49.690;6.472;2023-07-28T13:40:21;20.80;99.90
15364;DHT22;7781;49.690;6.472;2023-07-28T13:42:49;20.80;99.90
15364;DHT22;7781;49.690;6.472;2023-07-28T13:45:18;20.70;99.90
15364;DHT22;7781;49.690;6.472;2023-07-28T13:47:47;20.70;99.90
15364;DHT22;7781;49.690;6.472;2023-07-28T13:50:15;20.70;99.90
15364;DHT22;7781;49.690;6.472;2023-07-28T13:52:47;20.70;99.90
15364;DHT22;7781;49.690;6.472;2023-07-28T13:55:16;20.80;99.90
15364;DHT22;7781;49.690;6.472;2023-07-28T13:58:06;20.90;99.90
15364;DHT22;7781;49.690;6.472;2023-07-28T14:00:34;21.10;99.90
15364;DHT22;7781;49.690;6.472;2023-07-28T14:03:03;21.20;99.90
15364;DHT22;7781;49.690;6.472;2023-07-28T14:05:32;21.30;99.90
15364;DHT22;7781;49.690;6.472;2023-07-28T14:08:02;21.40;99.90
15364;DHT22;7781;49.690;6.472;2023-07-28T14:10:30;21.40;99.90
15364;DHT22;7781;49.690;6.472;2023-07-28T14:13:00;21.40;99.90
15364;DHT22;7781;49.690;6.472;2023-07-28T14:15:30;21.30;99.90
15364;DHT22;7781;49.690;6.472;2023-07-28T14:17:58;21.10;99.90
15364;DHT22;7781;49.690;6.472;2023-07-28T14:20:26;20.90;99.90
15364;DHT22;7781;49.690;6.472;2023-07-28T14:22:59;20.90;99.90
15364;DHT22;7781;49.690;6.472;2023-07-28T14:25:29;20.90;99.90
15364;DHT22;7781;49.690;6.472;2023-07-28T14:27:58;21.00;99.90
15364;DHT22;7781;49.690;6.472;2023-07-28T14:30:26;21.10;99.90
15364;DHT22;7781;49.690;6.472;2023-07-28T14:32:55;21.20;99.90
15364;DHT22;7781;49.690;6.472;2023-07-28T14:35:26;21.20;99.90
15364;DHT22;7781;49.690;6.472;2023-07-28T14:37:55;21.30;99.90
15364;DHT22;7781;49.690;6.472;2023-07-28T14:40:23;21.30;99.90
15364;DHT22;7781;49.690;6.472;2023-07-28T14:42:53;21.20;99.90
15364;DHT22;7781;49.690;6.472;2023-07-28T14:45:22;21.30;99.90
15364;DHT22;7781;49.690;6.472;2023-07-28T14:47:50;21.40;99.90
15364;DHT22;7781;49.690;6.472;2023-07-28T14:50:21;21.40;99.90
15364;DHT22;7781;49.690;6.472;2023-07-28T14:52:49;21.50;99.90
15364;DHT22;7781;49.690;6.472;2023-07-28T14:55:18;21.60;99.90
15364;DHT22;7781;49.690;6.472;2023-07-28T14:57:47;21.50;99.90
15364;DHT22;7781;49.690;6.472;2023-07-28T15:00:17;21.50;99.90
15364;DHT22;7781;49.690;6.472;2023-07-28T15:02:45;21.40;99.90
15364;DHT22;7781;49.690;6.472;2023-07-28T15:05:14;21.30;99.90
15364;DHT22;7781;49.690;6.472;2023-07-28T15:07:43;21.00;99.90
15364;DHT22;7781;49.690;6.472;2023-07-28T15:10:11;20.90;99.90
15364;DHT22;7781;49.690;6.472;2023-07-28T15:12:41;21.00;99.90
15364;DHT22;7781;49.690;6.472;2023-07-28T15:15:11;21.00;99.90
15364;DHT22;7781;49.690;6.472;2023-07-28T15:17:41;20.90;99.90
15364;DHT22;7781;49.690;6.472;2023-07-28T15:20:10;20.90;99.90
15364;DHT22;7781;49.690;6.472;2023-07-28T15:22:40;20.90;99.90
15364;DHT22;7781;49.690;6.472;2023-07-28T15:25:09;21.00;99.90
15364;DHT22;7781;49.690;6.472;2023-07-28T15:27:37;21.10;99.90
15364;DHT22;7781;49.690;6.472;2023-07-28T15:30:07;21.10;99.90
15364;DHT22;7781;49.690;6.472;2023-07-28T15:32:36;21.00;99.90
15364;DHT22;7781;49.690;6.472;2023-07-28T15:35:08;21.00;99.90
15364;DHT22;7781;49.690;6.472;2023-07-28T15:37:37;21.00;99.90
15364;DHT22;7781;49.690;6.472;2023-07-28T15:40:07;21.00;99.90
15364;DHT22;7781;49.690;6.472;2023-07-28T15:42:37;21.10;99.90
15364;DHT22;7781;49.690;6.472;2023-07-28T15:45:06;21.30;99.90
15364;DHT22;7781;49.690;6.472;2023-07-28T15:47:36;21.50;99.90
15364;DHT22;7781;49.690;6.472;2023-07-28T15:50:08;21.60;99.90
15364;DHT22;7781;49.690;6.472;2023-07-28T15:52:36;21.50;99.90
15364;DHT22;7781;49.690;6.472;2023-07-28T15:55:06;21.50;99.90
15364;DHT22;7781;49.690;6.472;2023-07-28T15:57:34;21.50;99.90
15364;DHT22;7781;49.690;6.472;2023-07-28T16:00:04;21.40;99.90
15364;DHT22;7781;49.690;6.472;2023-07-28T16:02:39;21.50;99.90
15364;DHT22;7781;49.690;6.472;2023-07-28T16:05:10;21.40;99.90
15364;DHT22;7781;49.690;6.472;2023-07-28T16:07:40;21.40;99.90